createdAt,value
2019-05-20T00:00:43.666Z,20.41
2019-05-20T00:03:17.550Z,20.22
2019-05-20T00:05:49.347Z,19.50
2019-05-20T00:08:22.613Z,18.82
2019-05-20T00:10:54.331Z,18.23
2019-05-20T00:13:26.077Z,17.76
2019-05-20T00:15:57.818Z,17.99
2019-05-20T00:18:29.559Z,18.85
2019-05-20T00:21:01.286Z,19.57
2019-05-20T00:23:33.140Z,20.16
2019-05-20T00:26:05.131Z,19.95
2019-05-20T00:28:36.989Z,19.23
2019-05-20T00:31:08.722Z,18.57
2019-05-20T00:33:41.966Z,18.01
2019-05-20T00:36:13.703Z,17.54
2019-05-20T00:38:47.665Z,17.85
2019-05-20T00:41:19.421Z,18.75
2019-05-20T00:43:52.065Z,19.56
2019-05-20T00:46:24.466Z,20.17
2019-05-20T00:48:56.220Z,19.93
2019-05-20T00:51:27.945Z,19.21
2019-05-20T00:54:00.068Z,18.54
2019-05-20T00:56:31.799Z,17.99
2019-05-20T00:59:03.555Z,17.47
2019-05-20T01:01:35.297Z,17.82
2019-05-20T01:04:07.051Z,18.70
2019-05-20T01:06:38.787Z,19.46
2019-05-20T01:09:10.400Z,20.09
2019-05-20T01:11:42.032Z,19.86
2019-05-20T01:14:13.770Z,19.12
2019-05-20T01:16:45.509Z,18.44
2019-05-20T01:19:17.364Z,17.85
2019-05-20T01:21:49.093Z,17.35
2019-05-20T01:24:20.883Z,17.58
2019-05-20T01:26:52.615Z,18.39
2019-05-20T01:29:24.377Z,19.16
2019-05-20T01:31:56.106Z,19.79
2019-05-20T01:34:27.868Z,19.68
2019-05-20T01:36:59.605Z,18.94
2019-05-20T01:39:31.418Z,18.29
2019-05-20T01:42:03.193Z,17.76
2019-05-20T01:44:34.933Z,17.26
2019-05-20T01:47:06.674Z,17.60
2019-05-20T01:49:38.928Z,18.50
2019-05-20T01:52:10.779Z,19.29
2019-05-20T01:54:42.539Z,19.89
2019-05-20T01:57:14.284Z,20.46
2019-05-20T01:59:46.036Z,20.20
2019-05-20T02:02:17.784Z,19.44
2019-05-20T02:04:49.650Z,18.80
2019-05-20T02:07:21.404Z,18.18
2019-05-20T02:09:53.172Z,17.66
2019-05-20T02:12:24.830Z,17.15
2019-05-20T02:14:58.328Z,17.40
2019-05-20T02:17:30.261Z,18.27
2019-05-20T02:20:02.037Z,18.95
2019-05-20T02:22:34.333Z,19.50
2019-05-20T02:25:07.838Z,19.36
2019-05-20T02:27:39.683Z,18.63
2019-05-20T02:30:12.648Z,18.01
2019-05-20T02:32:44.199Z,17.45
2019-05-20T02:35:16.228Z,16.98
2019-05-20T02:37:47.982Z,17.29
2019-05-20T02:40:20.020Z,18.12
2019-05-20T02:42:52.066Z,18.88
2019-05-20T02:45:25.007Z,19.50
2019-05-20T02:47:56.853Z,20.08
2019-05-20T02:50:28.784Z,19.82
2019-05-20T02:53:00.795Z,19.12
2019-05-20T02:55:32.449Z,18.42
2019-05-20T02:58:04.185Z,17.87
2019-05-20T03:00:35.946Z,17.35
2019-05-20T03:03:07.996Z,16.90
2019-05-20T03:05:39.770Z,17.19
2019-05-20T03:08:11.558Z,18.08
2019-05-20T03:10:43.742Z,18.92
2019-05-20T03:13:15.382Z,19.58
2019-05-20T03:15:49.053Z,20.19
2019-05-20T03:18:24.108Z,19.99
2019-05-20T03:20:55.887Z,19.22
2019-05-20T03:23:27.700Z,18.59
2019-05-20T03:26:00.415Z,18.07
2019-05-20T03:28:32.935Z,17.62
2019-05-20T03:31:04.488Z,17.19
2019-05-20T03:33:36.219Z,17.57
2019-05-20T03:36:08.614Z,18.42
2019-05-20T03:38:40.338Z,19.29
2019-05-20T03:41:14.869Z,20.05
2019-05-20T03:43:46.596Z,20.71
2019-05-20T03:46:21.603Z,20.58
2019-05-20T03:48:53.534Z,20.04
2019-05-20T03:51:27.519Z,19.54
2019-05-20T03:53:59.600Z,19.13
2019-05-20T03:56:31.248Z,18.85
2019-05-20T03:59:02.981Z,18.60
2019-05-20T04:01:34.733Z,19.26
2019-05-20T04:04:06.474Z,20.47
2019-05-20T04:06:38.245Z,21.57
2019-05-20T04:09:09.965Z,22.48
2019-05-20T04:11:41.834Z,22.55
2019-05-20T04:14:13.562Z,21.98
2019-05-20T04:16:45.321Z,21.54
2019-05-20T04:19:17.084Z,21.41
2019-05-20T04:21:48.828Z,21.43
2019-05-20T04:24:21.197Z,21.47
2019-05-20T04:27:00.161Z,21.61
2019-05-20T04:29:32.463Z,21.81
2019-05-20T04:32:04.213Z,22.08
2019-05-20T04:34:35.930Z,22.41
2019-05-20T04:37:09.354Z,22.78
2019-05-20T04:39:40.981Z,23.22
2019-05-20T04:42:12.735Z,23.60
2019-05-20T04:44:44.469Z,23.88
2019-05-20T04:47:16.223Z,24.13
2019-05-20T04:49:47.965Z,24.51
2019-05-20T04:52:19.714Z,24.95
2019-05-20T04:54:51.545Z,25.30
2019-05-20T04:57:23.300Z,25.71
2019-05-20T04:59:55.054Z,26.11
2019-05-20T05:02:26.801Z,26.50
2019-05-20T05:04:59.799Z,26.90
2019-05-20T05:07:31.570Z,27.44
2019-05-20T05:10:04.072Z,27.96
2019-05-20T05:12:36.040Z,28.37
2019-05-20T05:15:10.728Z,28.75
2019-05-20T05:17:42.577Z,29.04
2019-05-20T05:20:18.485Z,29.33
2019-05-20T05:22:49.771Z,29.73
2019-05-20T05:25:21.503Z,30.13
2019-05-20T05:27:53.269Z,30.61
2019-05-20T05:30:25.011Z,31.05
2019-05-20T05:32:57.910Z,31.45
2019-05-20T05:35:34.028Z,31.87
2019-05-20T05:38:06.620Z,32.21
2019-05-20T05:40:39.188Z,32.52
2019-05-20T05:43:10.961Z,32.78
2019-05-20T05:45:42.988Z,32.85
2019-05-20T05:48:15.654Z,33.03
2019-05-20T05:50:47.411Z,33.10
2019-05-20T05:53:19.169Z,33.02
2019-05-20T05:55:50.966Z,32.85
2019-05-20T05:58:25.605Z,32.82
2019-05-20T06:00:58.839Z,32.85
2019-05-20T06:03:30.614Z,32.87
2019-05-20T06:06:12.045Z,32.99
2019-05-20T06:08:39.997Z,33.23
2019-05-20T06:11:23.363Z,33.37
2019-05-20T06:13:59.669Z,33.31
2019-05-20T06:16:36.352Z,33.26
2019-05-20T06:19:05.494Z,33.10
2019-05-20T06:21:40.214Z,32.95
2019-05-20T06:24:16.213Z,32.81
2019-05-20T06:26:50.363Z,32.66
2019-05-20T06:29:22.986Z,32.64
2019-05-20T06:31:55.858Z,32.66
2019-05-20T06:34:35.274Z,32.81
2019-05-20T06:37:10.681Z,32.87
2019-05-20T06:39:44.077Z,33.13
2019-05-20T06:42:18.315Z,33.50
2019-05-20T06:44:53.919Z,34.02
2019-05-20T06:47:27.513Z,34.30
2019-05-20T06:50:00.150Z,34.30
2019-05-20T06:52:35.783Z,34.19
2019-05-20T06:55:10.510Z,34.51
2019-05-20T06:57:42.257Z,34.88
2019-05-20T07:00:16.570Z,35.20
2019-05-20T07:02:52.002Z,35.47
2019-05-20T07:05:22.724Z,35.64
2019-05-20T07:07:54.467Z,35.81
2019-05-20T07:10:28.737Z,35.89
2019-05-20T07:13:00.465Z,35.93
2019-05-20T07:15:32.294Z,35.73
2019-05-20T07:18:04.308Z,35.61
2019-05-20T07:20:36.040Z,35.23
2019-05-20T07:23:07.780Z,34.49
2019-05-20T07:25:39.647Z,33.69
2019-05-20T07:28:12.441Z,32.96
2019-05-20T07:30:47.489Z,32.31
2019-05-20T07:33:20.412Z,31.67
2019-05-20T07:35:53.586Z,31.06
2019-05-20T07:38:28.094Z,30.50
2019-05-20T07:41:03.029Z,29.92
2019-05-20T07:43:38.356Z,29.41
2019-05-20T07:46:13.846Z,28.86
2019-05-20T07:48:52.756Z,28.41
2019-05-20T07:51:29.055Z,27.99
2019-05-20T07:54:02.253Z,27.60
2019-05-20T07:56:38.968Z,27.31
2019-05-20T07:59:13.558Z,27.03
2019-05-20T08:01:45.442Z,26.77
2019-05-20T08:04:17.091Z,26.50
2019-05-20T08:06:48.976Z,26.27
2019-05-20T08:09:20.649Z,26.06
2019-05-20T08:11:54.090Z,25.89
2019-05-20T08:14:26.383Z,25.74
2019-05-20T08:16:57.952Z,25.65
2019-05-20T08:19:33.922Z,25.57
2019-05-20T08:22:07.982Z,25.38
2019-05-20T08:24:41.425Z,25.34
2019-05-20T08:27:15.018Z,25.30
2019-05-20T08:29:50.309Z,25.31
2019-05-20T08:32:23.397Z,25.30
2019-05-20T08:34:56.613Z,25.33
2019-05-20T08:37:44.347Z,25.33
2019-05-20T08:40:03.414Z,25.24
2019-05-20T08:42:35.282Z,25.19
2019-05-20T08:45:08.862Z,25.07
2019-05-20T08:47:40.724Z,24.92
2019-05-20T08:50:16.203Z,24.81
2019-05-20T08:52:48.742Z,24.67
2019-05-20T08:55:20.568Z,24.58
2019-05-20T08:57:52.711Z,24.50
2019-05-20T09:00:25.873Z,24.44
2019-05-20T09:02:57.735Z,24.30
2019-05-20T09:05:29.486Z,24.19
2019-05-20T09:08:03.518Z,24.71
2019-05-20T09:10:35.282Z,25.76
2019-05-20T09:13:06.835Z,26.03
2019-05-20T09:15:38.881Z,25.69
2019-05-20T09:18:10.749Z,25.40
2019-05-20T09:20:42.478Z,25.10
2019-05-20T09:23:14.563Z,24.90
2019-05-20T09:25:47.678Z,24.68
2019-05-20T09:28:21.828Z,24.51
2019-05-20T09:30:53.754Z,24.98
2019-05-20T09:33:29.881Z,26.09
2019-05-20T09:36:07.312Z,26.33
2019-05-20T09:38:42.155Z,25.88
2019-05-20T09:41:14.330Z,25.47
2019-05-20T09:43:46.172Z,25.20
2019-05-20T09:46:17.796Z,24.93
2019-05-20T09:48:49.635Z,24.71
2019-05-20T09:51:21.370Z,24.50
2019-05-20T09:53:59.852Z,24.95
2019-05-20T09:56:38.075Z,25.95
2019-05-20T09:59:09.824Z,25.99
2019-05-20T10:01:41.562Z,25.47
2019-05-20T10:04:16.462Z,25.05
2019-05-20T10:06:49.290Z,24.82
2019-05-20T10:09:23.405Z,24.61
2019-05-20T10:11:55.052Z,24.82
2019-05-20T10:14:26.927Z,25.85
2019-05-20T10:17:01.781Z,26.52
2019-05-20T10:19:34.077Z,26.02
2019-05-20T10:22:07.338Z,25.54
2019-05-20T10:24:39.106Z,25.14
2019-05-20T10:27:10.844Z,24.75
2019-05-20T10:29:44.070Z,24.82
2019-05-20T10:32:15.863Z,25.76
2019-05-20T10:34:49.255Z,26.73
2019-05-20T10:37:21.164Z,26.79
2019-05-20T10:39:53.011Z,26.26
2019-05-20T10:42:24.746Z,25.74
2019-05-20T10:44:56.598Z,25.45
2019-05-20T10:47:28.333Z,25.24
2019-05-20T10:50:00.136Z,25.13
2019-05-20T10:52:31.861Z,25.92
2019-05-20T10:55:05.049Z,27.10
2019-05-20T10:57:36.966Z,27.38
2019-05-20T11:00:10.185Z,27.26
2019-05-20T11:02:41.722Z,27.03
2019-05-20T11:05:14.019Z,26.88
2019-05-20T11:07:45.748Z,26.71
2019-05-20T11:10:18.470Z,26.52
2019-05-20T11:12:50.288Z,26.30
2019-05-20T11:15:22.364Z,26.04
2019-05-20T11:17:54.063Z,25.82
2019-05-20T11:20:25.935Z,25.60
2019-05-20T11:23:00.902Z,25.51
2019-05-20T11:25:32.046Z,25.40
2019-05-20T11:28:04.214Z,25.24
2019-05-20T11:30:36.057Z,25.13
2019-05-20T11:33:08.874Z,25.07
2019-05-20T11:35:40.456Z,25.03
2019-05-20T11:38:12.290Z,25.03
2019-05-20T11:40:51.568Z,25.01
2019-05-20T11:43:22.977Z,25.03
2019-05-20T11:45:55.809Z,25.05
2019-05-20T11:48:27.726Z,25.06
2019-05-20T11:51:03.613Z,25.05
2019-05-20T11:53:38.990Z,25.02
2019-05-20T11:56:12.130Z,24.98
2019-05-20T11:58:43.959Z,24.96
2019-05-20T12:01:15.715Z,24.92
2019-05-20T12:03:47.910Z,24.99
2019-05-20T12:06:19.577Z,25.16
2019-05-20T12:08:51.325Z,25.34
2019-05-20T12:11:23.046Z,25.42
2019-05-20T12:13:54.792Z,25.38
2019-05-20T12:16:26.651Z,25.37
2019-05-20T12:18:59.702Z,25.36
2019-05-20T12:21:34.619Z,25.30
2019-05-20T12:24:06.141Z,25.33
2019-05-20T12:26:40.169Z,25.37
2019-05-20T12:29:12.521Z,25.40
2019-05-20T12:31:46.180Z,25.45
2019-05-20T12:34:20.552Z,25.42
2019-05-20T12:36:55.228Z,25.47
2019-05-20T12:39:26.937Z,25.49
2019-05-20T12:42:02.728Z,25.55
2019-05-20T12:44:37.341Z,25.58
2019-05-20T12:47:09.195Z,25.57
2019-05-20T12:49:43.983Z,25.58
2019-05-20T12:52:15.743Z,25.60
2019-05-20T12:55:06.215Z,25.66
2019-05-20T12:57:27.286Z,25.76
2019-05-20T12:59:59.169Z,25.85
2019-05-20T13:02:30.779Z,25.93
2019-05-20T13:05:02.657Z,25.99
2019-05-20T13:07:34.520Z,26.10
2019-05-20T13:10:28.197Z,26.21
2019-05-20T13:12:44.618Z,26.28
2019-05-20T13:15:16.767Z,26.30
2019-05-20T13:17:48.425Z,26.33
2019-05-20T13:20:20.455Z,26.45
2019-05-20T13:22:52.620Z,26.56
2019-05-20T13:25:25.593Z,26.68
2019-05-20T13:27:57.356Z,26.69
2019-05-20T13:30:30.629Z,26.71
2019-05-20T13:33:04.545Z,26.75
2019-05-20T13:35:36.236Z,26.78
2019-05-20T13:38:14.650Z,26.73
2019-05-20T13:40:48.849Z,26.69
2019-05-20T13:43:22.498Z,26.59
2019-05-20T13:45:54.336Z,26.52
2019-05-20T13:48:26.089Z,26.31
2019-05-20T13:50:57.850Z,26.17
2019-05-20T13:53:29.704Z,26.02
2019-05-20T13:56:01.336Z,25.88
2019-05-20T13:58:36.399Z,25.76
2019-05-20T14:01:08.017Z,25.60
2019-05-20T14:03:39.741Z,25.51
2019-05-20T14:06:11.490Z,25.41
2019-05-20T14:08:43.834Z,25.34
2019-05-20T14:11:15.577Z,25.30
2019-05-20T14:13:47.413Z,25.27
2019-05-20T14:16:20.067Z,25.24
2019-05-20T14:18:54.203Z,25.17
2019-05-20T14:21:26.247Z,25.10
2019-05-20T14:23:58.053Z,25.09
2019-05-20T14:26:30.362Z,25.06
2019-05-20T14:29:02.428Z,25.02
2019-05-20T14:31:34.946Z,24.98
2019-05-20T14:34:07.813Z,24.96
2019-05-20T14:36:40.443Z,24.96
2019-05-20T14:39:12.991Z,24.93
2019-05-20T14:41:44.516Z,24.90
2019-05-20T14:44:16.458Z,24.87
2019-05-20T14:46:48.268Z,24.87
2019-05-20T14:49:20.783Z,24.90
2019-05-20T14:51:52.699Z,24.93
2019-05-20T14:54:24.422Z,24.89
2019-05-20T14:56:56.143Z,24.82
2019-05-20T14:59:30.435Z,24.79
2019-05-20T15:02:02.263Z,24.82
2019-05-20T15:04:35.019Z,24.83
2019-05-20T15:07:06.936Z,24.87
2019-05-20T15:09:40.235Z,24.87
2019-05-20T15:12:12.255Z,24.87
2019-05-20T15:14:45.824Z,24.83
2019-05-20T15:17:17.674Z,24.82
2019-05-20T15:19:51.822Z,24.79
2019-05-20T15:22:26.846Z,24.74
2019-05-20T15:25:01.895Z,24.71
2019-05-20T15:27:37.586Z,24.72
2019-05-20T15:30:12.878Z,24.76
2019-05-20T15:32:47.983Z,24.76
2019-05-20T15:35:19.725Z,24.76
2019-05-20T15:37:51.404Z,24.67
2019-05-20T15:40:24.547Z,24.57
2019-05-20T15:42:56.841Z,24.46
2019-05-20T15:45:28.772Z,24.36
2019-05-20T15:48:00.979Z,24.23
2019-05-20T15:50:32.861Z,24.12
2019-05-20T15:53:10.979Z,23.98
2019-05-20T15:55:40.206Z,23.85
2019-05-20T15:58:11.852Z,23.74
2019-05-20T16:00:43.586Z,23.64
2019-05-20T16:03:15.452Z,23.54
2019-05-20T16:05:47.171Z,23.47
2019-05-20T16:08:20.234Z,23.38
2019-05-20T16:10:55.080Z,23.32
2019-05-20T16:13:29.735Z,23.26
2019-05-20T16:16:05.030Z,23.23
2019-05-20T16:18:36.726Z,23.20
2019-05-20T16:21:10.535Z,23.13
2019-05-20T16:23:45.427Z,23.13
2019-05-20T16:26:17.473Z,23.03
2019-05-20T16:28:50.662Z,22.99
2019-05-20T16:31:22.560Z,22.89
2019-05-20T16:33:54.414Z,22.79
2019-05-20T16:36:27.166Z,22.75
2019-05-20T16:38:59.197Z,22.65
2019-05-20T16:41:31.658Z,22.63
2019-05-20T16:44:03.762Z,22.60
2019-05-20T16:46:35.550Z,22.55
2019-05-20T16:49:07.449Z,22.54
2019-05-20T16:51:40.587Z,22.50
2019-05-20T16:54:12.574Z,22.44
2019-05-20T16:56:44.242Z,22.40
2019-05-20T16:59:16.582Z,22.33
2019-05-20T17:01:48.288Z,22.29
2019-05-20T17:04:20.525Z,22.23
2019-05-20T17:06:52.633Z,22.15
2019-05-20T17:09:25.043Z,22.06
2019-05-20T17:11:56.688Z,21.99
2019-05-20T17:14:28.640Z,21.92
2019-05-20T17:17:01.415Z,21.85
2019-05-20T17:19:33.047Z,21.76
2019-05-20T17:22:05.540Z,21.71
2019-05-20T17:24:37.278Z,21.62
2019-05-20T17:27:12.808Z,21.60
2019-05-20T17:29:47.993Z,21.57
2019-05-20T17:32:21.561Z,21.54
2019-05-20T17:34:56.717Z,21.50
2019-05-20T17:37:30.923Z,21.47
2019-05-20T17:40:08.327Z,21.41
2019-05-20T17:42:40.103Z,21.39
2019-05-20T17:45:13.862Z,21.31
2019-05-20T17:47:49.590Z,21.24
2019-05-20T17:50:26.089Z,21.19
2019-05-20T17:53:03.793Z,21.12
2019-05-20T17:55:36.632Z,21.02
2019-05-20T17:58:08.279Z,20.92
2019-05-20T18:00:42.711Z,20.86
2019-05-20T18:03:15.688Z,20.77
2019-05-20T18:05:48.634Z,20.67
2019-05-20T18:08:21.084Z,20.58
2019-05-20T18:10:55.473Z,20.48
2019-05-20T18:13:28.039Z,20.40
2019-05-20T18:16:15.018Z,20.32
2019-05-20T18:18:50.117Z,20.20
2019-05-20T18:21:22.560Z,20.13
2019-05-20T18:23:56.724Z,20.04
2019-05-20T18:26:28.484Z,19.93
2019-05-20T18:29:03.831Z,19.85
2019-05-20T18:31:35.531Z,19.75
2019-05-20T18:34:08.065Z,19.65
2019-05-20T18:36:39.821Z,19.58
2019-05-20T18:39:14.075Z,19.47
2019-05-20T18:41:45.993Z,19.34
2019-05-20T18:44:17.873Z,19.26
2019-05-20T18:46:50.715Z,19.16
2019-05-20T18:49:22.748Z,19.03
2019-05-20T18:51:57.192Z,18.94
2019-05-20T18:54:28.934Z,18.78
2019-05-20T18:57:01.584Z,18.64
2019-05-20T18:59:33.366Z,18.52
2019-05-20T19:02:06.010Z,18.40
2019-05-20T19:04:38.692Z,19.13
2019-05-20T19:07:12.654Z,20.29
2019-05-20T19:09:44.457Z,21.29
2019-05-20T19:12:18.520Z,21.41
2019-05-20T19:14:51.764Z,20.95
2019-05-20T19:17:23.658Z,20.51
2019-05-20T19:19:58.419Z,20.17
2019-05-20T19:22:30.653Z,19.81
2019-05-20T19:25:06.636Z,19.50
2019-05-20T19:27:38.491Z,19.17
2019-05-20T19:30:12.796Z,18.91
2019-05-20T19:32:44.552Z,18.57
2019-05-20T19:35:19.613Z,19.05
2019-05-20T19:37:51.876Z,20.02
2019-05-20T19:40:24.004Z,20.92
2019-05-20T19:43:24.505Z,21.71
2019-05-20T19:46:00.626Z,21.46
2019-05-20T19:48:33.353Z,20.82
2019-05-20T19:51:05.829Z,20.29
2019-05-20T19:53:40.524Z,19.84
2019-05-20T19:56:12.559Z,19.43
2019-05-20T19:58:44.543Z,19.08
2019-05-20T20:01:18.079Z,18.67
2019-05-20T20:03:50.030Z,18.33
2019-05-20T20:06:27.607Z,18.75
2019-05-20T20:08:59.543Z,19.75
2019-05-20T20:11:36.355Z,20.58
2019-05-20T20:14:09.590Z,21.36
2019-05-20T20:16:42.666Z,21.12
2019-05-20T20:19:18.416Z,20.54
2019-05-20T20:21:56.664Z,19.96
2019-05-20T20:24:28.422Z,19.47
2019-05-20T20:27:03.895Z,19.09
2019-05-20T20:29:37.322Z,18.63
2019-05-20T20:32:12.763Z,18.25
2019-05-20T20:37:10.450Z,19.17
2019-05-20T20:39:44.348Z,20.13
2019-05-20T20:42:18.281Z,20.91
2019-05-20T20:44:50.491Z,21.60
2019-05-20T20:47:33.576Z,21.36
2019-05-20T20:49:59.170Z,20.70
2019-05-20T20:52:32.552Z,20.13
2019-05-20T20:55:08.539Z,19.61
2019-05-20T20:57:40.426Z,19.16
2019-05-20T21:00:13.951Z,18.72
2019-05-20T21:02:53.383Z,18.30
2019-05-20T21:05:19.948Z,18.70
2019-05-20T21:07:51.923Z,19.70
2019-05-20T21:10:24.006Z,20.50
2019-05-20T21:12:56.350Z,21.19
2019-05-20T21:15:28.138Z,21.05
2019-05-20T21:17:59.933Z,20.40
2019-05-20T21:20:31.737Z,19.81
2019-05-20T21:23:03.408Z,19.33
2019-05-20T21:25:35.210Z,18.88
2019-05-20T21:28:06.920Z,18.42
2019-05-20T21:30:38.815Z,18.04
2019-05-20T21:33:10.905Z,18.43
2019-05-20T21:35:45.317Z,19.39
2019-05-20T21:38:16.190Z,20.22
2019-05-20T21:40:47.872Z,20.89
2019-05-20T21:43:19.714Z,20.72
2019-05-20T21:45:51.718Z,20.02
2019-05-20T21:48:24.041Z,19.40
2019-05-20T21:50:55.996Z,18.87
2019-05-20T21:53:27.957Z,18.35
2019-05-20T21:55:59.813Z,17.90
2019-05-20T21:58:35.621Z,18.20
2019-05-20T22:01:08.501Z,19.16
2019-05-20T22:03:41.011Z,19.96
2019-05-20T22:06:12.978Z,20.64
2019-05-20T22:08:44.960Z,20.39
2019-05-20T22:11:16.789Z,19.68
2019-05-20T22:13:48.421Z,19.03
2019-05-20T22:16:20.261Z,18.44
2019-05-20T22:18:52.213Z,17.95
2019-05-20T22:21:25.587Z,17.52
2019-05-20T22:24:01.940Z,17.85
2019-05-20T22:26:35.259Z,18.84
2019-05-20T22:29:06.992Z,19.65
2019-05-20T22:31:38.748Z,20.32
2019-05-20T22:34:10.519Z,20.11
2019-05-20T22:36:42.291Z,19.40
2019-05-20T22:39:13.928Z,18.77
2019-05-20T22:41:45.786Z,18.16
2019-05-20T22:44:18.756Z,17.66
2019-05-20T22:46:50.428Z,17.19
2019-05-20T22:49:22.364Z,17.49
2019-05-20T22:51:55.841Z,18.39
2019-05-20T22:54:27.602Z,19.23
2019-05-20T22:56:59.353Z,19.84
2019-05-20T22:59:31.090Z,19.74
2019-05-20T23:02:02.855Z,19.02
2019-05-20T23:04:34.586Z,18.35
2019-05-20T23:07:06.430Z,17.81
2019-05-20T23:09:38.178Z,17.32
2019-05-20T23:12:09.928Z,16.87
2019-05-20T23:14:41.667Z,17.19
2019-05-20T23:17:13.419Z,18.08
2019-05-20T23:19:47.082Z,18.91
2019-05-20T23:22:18.795Z,19.60
2019-05-20T23:24:50.531Z,19.44
2019-05-20T23:27:22.286Z,18.72
2019-05-20T23:29:54.395Z,18.09
2019-05-20T23:32:26.226Z,17.57
2019-05-20T23:34:58.139Z,17.11
2019-05-20T23:37:29.977Z,16.68
2019-05-20T23:40:01.730Z,16.97
2019-05-20T23:42:33.484Z,17.82
2019-05-20T23:45:08.761Z,18.56
2019-05-20T23:47:40.473Z,19.29
2019-05-20T23:50:12.936Z,19.13
2019-05-20T23:52:44.837Z,18.37
2019-05-20T23:55:17.962Z,17.77
2019-05-20T23:57:49.795Z,17.19
